createdAt,value
2022-08-05T08:35:18.902Z,282.00
2022-08-05T08:45:23.345Z,5.00
2022-08-05T08:45:30.787Z,5.00
2022-08-05T08:45:40.143Z,5.00
2022-08-05T08:45:53.125Z,5.00
2022-08-05T08:46:06.125Z,5.00
2022-08-05T08:46:18.732Z,307.00
2022-08-05T08:46:29.332Z,306.00
2022-08-05T08:46:42.313Z,305.00
2022-08-05T08:46:55.312Z,303.00
2022-08-05T08:58:55.044Z,6.00
2022-08-05T08:59:10.094Z,6.00
2022-08-05T08:59:27.523Z,6.00
2022-08-05T08:59:38.278Z,4.00
2022-08-05T08:59:47.098Z,25.00
2022-08-05T08:59:56.417Z,19.00
2022-08-05T09:00:06.411Z,16.00
2022-08-05T09:00:16.409Z,24.00
2022-08-05T09:00:26.473Z,10.00
2022-08-05T09:00:36.466Z,21.00
2022-08-05T09:00:46.490Z,21.00
2022-08-05T09:00:56.435Z,23.00
2022-08-05T09:01:06.479Z,21.00
2022-08-05T09:01:18.004Z,21.00
2022-08-05T09:01:26.411Z,20.00
2022-08-05T09:01:36.384Z,20.00
2022-08-05T09:01:47.271Z,20.00
2022-08-05T09:02:02.220Z,22.00
2022-08-05T09:02:08.553Z,22.00
2022-08-05T09:02:16.902Z,22.00
2022-08-05T09:02:27.112Z,22.00
2022-08-05T09:02:36.898Z,22.00
2022-08-05T09:02:46.899Z,22.00
2022-08-05T09:02:56.911Z,22.00
2022-08-05T09:03:06.933Z,24.00
2022-08-05T09:03:19.156Z,24.00
2022-08-05T09:03:26.885Z,24.00
2022-08-05T09:03:45.648Z,24.00
2022-08-05T09:03:52.882Z,23.00
2022-08-05T09:04:00.425Z,21.00
2022-08-05T09:04:10.709Z,26.00
2022-08-05T09:04:20.411Z,14.00
2022-08-05T09:04:31.059Z,15.00
2022-08-05T09:04:58.532Z,17.00
2022-08-05T09:05:38.733Z,14.00
2022-08-05T09:06:18.488Z,20.00
2022-08-05T09:06:29.726Z,22.00
2022-08-05T09:06:36.370Z,25.00
2022-08-05T09:06:45.034Z,23.00
2022-08-05T09:06:54.999Z,23.00
2022-08-05T09:07:04.981Z,22.00
2022-08-05T09:07:28.563Z,24.00
2022-08-05T09:07:39.770Z,25.00
2022-08-05T09:08:01.695Z,21.00
2022-08-05T09:08:06.645Z,21.00
2022-08-05T09:08:16.658Z,21.00
2022-08-05T09:08:30.105Z,19.00
2022-08-05T09:08:37.252Z,19.00
2022-08-05T09:08:46.663Z,19.00
2022-08-05T09:08:56.631Z,21.00
2022-08-05T09:09:06.627Z,21.00
2022-08-05T09:09:16.643Z,22.00
2022-08-05T09:09:34.542Z,23.00
2022-08-05T09:09:39.963Z,21.00
2022-08-05T09:09:46.615Z,20.00
2022-08-05T09:09:56.629Z,21.00
2022-08-05T09:10:06.616Z,23.00
2022-08-05T09:10:16.706Z,23.00
2022-08-05T09:10:27.044Z,25.00
2022-08-05T09:10:36.605Z,22.00
2022-08-05T09:10:46.858Z,22.00
2022-08-05T09:10:56.602Z,22.00
2022-08-05T09:11:06.612Z,22.00
2022-08-05T09:11:16.594Z,25.00
2022-08-05T09:11:50.955Z,25.00
2022-08-05T09:12:04.619Z,24.00
2022-08-05T09:12:30.054Z,23.00
2022-08-05T09:12:35.160Z,21.00
2022-08-05T09:12:40.104Z,21.00
2022-08-05T09:12:51.115Z,23.00
2022-08-05T09:13:05.226Z,27.00
2022-08-05T09:13:10.100Z,27.00
2022-08-05T09:13:20.094Z,27.00
2022-08-05T09:13:31.718Z,27.00
2022-08-05T09:14:01.039Z,23.00
2022-08-05T09:15:05.868Z,23.00
2022-08-05T09:15:10.837Z,31.00
2022-08-05T09:15:19.712Z,20.00
2022-08-05T09:15:30.498Z,21.00
2022-08-05T09:15:39.706Z,21.00
2022-08-05T09:15:49.700Z,19.00
2022-08-05T09:15:59.701Z,19.00
2022-08-05T09:16:14.662Z,19.00
2022-08-05T09:16:21.595Z,17.00
2022-08-05T09:16:31.369Z,17.00
2022-08-05T09:16:41.208Z,17.00
2022-08-05T09:16:53.387Z,17.00
2022-08-05T09:17:01.201Z,19.00
2022-08-05T09:17:40.967Z,19.00
2022-08-05T09:17:49.625Z,19.00
2022-08-05T09:17:54.609Z,19.00
2022-08-05T09:18:04.613Z,17.00
2022-08-05T09:18:14.609Z,18.00
2022-08-05T09:18:24.609Z,18.00
2022-08-05T09:18:34.604Z,19.00
2022-08-05T09:18:44.602Z,21.00
2022-08-05T09:18:55.339Z,21.00
2022-08-05T09:19:06.954Z,20.00
2022-08-05T09:19:14.776Z,21.00
2022-08-05T09:19:27.742Z,26.00
2022-08-05T09:19:36.770Z,25.00
2022-08-05T09:20:02.482Z,25.00
2022-08-05T09:20:09.511Z,26.00
2022-08-05T09:20:36.224Z,26.00
2022-08-05T09:20:41.450Z,27.00
2022-08-05T09:20:46.538Z,25.00
2022-08-05T09:20:56.531Z,27.00
2022-08-05T09:21:11.440Z,27.00
2022-08-05T09:21:20.613Z,27.00
2022-08-05T09:22:25.001Z,26.00
2022-08-05T09:22:36.532Z,24.00
2022-08-05T09:22:41.314Z,31.00
2022-08-05T09:23:01.515Z,30.00
2022-08-05T09:23:09.903Z,29.00
2022-08-05T09:23:23.799Z,29.00
2022-08-05T09:23:33.449Z,29.00
2022-08-05T09:23:48.042Z,29.00
2022-08-05T09:23:54.988Z,29.00
2022-08-05T09:24:04.136Z,29.00
2022-08-05T09:24:14.139Z,30.00
2022-08-05T09:24:24.321Z,32.00
2022-08-05T09:24:34.136Z,30.00
2022-08-05T09:24:44.131Z,29.00
2022-08-05T09:24:54.127Z,31.00
2022-08-05T09:25:24.021Z,31.00
2022-08-05T09:26:06.467Z,32.00
2022-08-05T09:26:11.346Z,28.00
2022-08-05T09:26:25.181Z,27.00
2022-08-05T09:26:36.896Z,29.00
2022-08-05T09:26:44.791Z,28.00
2022-08-05T09:26:54.779Z,26.00
2022-08-05T09:27:04.784Z,27.00
2022-08-05T09:27:18.868Z,27.00
2022-08-05T09:28:10.091Z,33.00
2022-08-05T09:28:21.049Z,33.00
2022-08-05T09:28:32.078Z,28.00
2022-08-05T09:28:37.718Z,28.00
2022-08-05T09:28:47.707Z,26.00
2022-08-05T09:28:57.698Z,28.00
2022-08-05T09:29:08.814Z,27.00
2022-08-05T09:29:19.136Z,28.00
2022-08-05T09:29:30.754Z,26.00
2022-08-05T09:29:47.615Z,26.00
2022-08-05T09:29:52.679Z,25.00
2022-08-05T09:29:57.684Z,25.00
2022-08-05T09:30:07.683Z,26.00
2022-08-05T09:30:23.274Z,26.00
2022-08-05T09:30:28.249Z,25.00
2022-08-05T09:30:38.247Z,23.00
2022-08-05T09:30:48.250Z,20.00
2022-08-05T09:30:58.240Z,20.00
2022-08-05T09:31:22.321Z,23.00
2022-08-05T09:32:42.090Z,23.00
2022-08-05T09:32:53.548Z,23.00
2022-08-05T09:32:58.487Z,20.00
2022-08-05T09:33:08.497Z,25.00
2022-08-05T09:33:19.878Z,25.00
2022-08-05T09:33:35.178Z,27.00
2022-08-05T09:33:39.921Z,28.00
2022-08-05T09:33:48.481Z,29.00
2022-08-05T09:33:58.589Z,29.00
2022-08-05T09:34:09.757Z,30.00
2022-08-05T09:34:18.462Z,29.00
2022-08-05T09:34:28.468Z,31.00
2022-08-05T09:34:38.457Z,30.00
2022-08-05T09:34:48.455Z,30.00
2022-08-05T09:34:58.455Z,31.00
2022-08-05T09:35:08.452Z,29.00
2022-08-05T09:35:26.363Z,31.00
2022-08-05T09:35:32.800Z,33.00
2022-08-05T09:35:38.441Z,33.00
2022-08-05T09:35:48.441Z,34.00
2022-08-05T09:35:58.435Z,32.00
2022-08-05T09:36:16.147Z,33.00
2022-08-05T09:36:21.238Z,33.00
2022-08-05T09:36:33.570Z,36.00
2022-08-05T09:36:54.204Z,34.00
2022-08-05T09:37:00.149Z,35.00
2022-08-05T09:37:04.860Z,35.00
2022-08-05T09:38:12.010Z,41.00
2022-08-05T09:38:27.355Z,40.00
2022-08-05T09:38:34.062Z,38.00
2022-08-05T09:38:41.949Z,42.00
2022-08-05T09:38:51.948Z,42.00
2022-08-05T09:39:02.345Z,42.00
2022-08-05T09:39:16.611Z,43.00
2022-08-05T09:39:39.380Z,46.00
2022-08-05T09:39:52.303Z,23.00
2022-08-05T09:40:00.734Z,46.00
2022-08-05T09:40:09.111Z,31.00
2022-08-05T09:40:19.128Z,27.00
2022-08-05T09:40:29.170Z,31.00
2022-08-05T09:40:39.056Z,31.00
2022-08-05T09:40:57.318Z,25.00
2022-08-05T09:41:02.006Z,21.00
